Time;durP1;ratioP1;P1;durP2;ratioP2;P2;SDS_P1;SDS_P2;PMS_P1;PMS_P2;Temp;Humidity;BMP_temperature;BMP_pressure;BME280_temperature;BME280_humidity;BME280_pressure;Samples;Min_cycle;Max_cycle;Signal;HPM_P1;HPM_P2
2023/10/09 00:00:55;;;;;;;44.15;41.85;;;;;;;12.30;100.00;101796.78;4952208;28;20141;-90
2023/10/09 00:03:27;;;;;;;38.55;36.65;;;;;;;12.28;100.00;101803.31;4941219;29;20443;-90
2023/10/09 00:05:55;;;;;;;44.90;42.70;;;;;;;12.45;100.00;101801.22;4950372;29;20090;-89
2023/10/09 00:08:31;;;;;;;54.03;51.42;;;;;;;12.19;100.00;101807.94;4940227;28;20059;-89
2023/10/09 00:11:13;;;;;;;43.95;41.75;;;;;;;12.72;100.00;101812.91;4951214;28;20101;-89
2023/10/09 00:13:50;;;;;;;42.05;39.85;;;;;;;12.76;100.00;101823.00;4948083;28;20055;-89
2023/10/09 00:16:32;;;;;;;46.70;44.40;;;;;;;13.02;100.00;101832.22;4954216;29;20051;-90
2023/10/09 00:25:24;;;;;;;40.25;37.90;;;;;;;12.34;100.00;101846.03;4891560;29;20064;-89
2023/10/09 00:28:18;;;;;;;42.92;40.72;;;;;;;12.37;100.00;101850.13;4938988;29;20893;-90
2023/10/09 00:30:58;;;;;;;46.67;44.47;;;;;;;12.30;100.00;101847.41;4961797;28;20511;-91
2023/10/09 00:33:54;;;;;;;47.83;45.55;;;;;;;12.30;100.00;101855.38;4948685;28;20062;-89
2023/10/09 00:43:10;;;;;;;;;;;;;;;;;;;;;
2023/10/09 00:46:03;;;;;;;53.75;51.05;;;;;;;12.14;100.00;101852.97;4949236;28;20534;-90
2023/10/09 00:58:12;;;;;;;39.30;37.20;;;;;;;12.15;100.00;101887.41;4941985;28;20048;-89
2023/10/09 01:01:05;;;;;;;44.88;42.65;;;;;;;12.90;100.00;101916.44;4951549;28;20047;-90
2023/10/09 01:03:53;;;;;;;42.10;40.10;;;;;;;12.03;100.00;101893.41;4952398;28;20051;-90
2023/10/09 01:06:42;;;;;;;43.90;41.60;;;;;;;12.09;100.00;101896.13;4948781;28;20058;-90
2023/10/09 01:09:28;;;;;;;51.55;49.05;;;;;;;12.06;100.00;101898.34;4941456;29;20062;-89
2023/10/09 01:15:36;;;;;;;39.75;37.55;;;;;;;11.94;100.00;101895.34;4949683;28;20059;-90
2023/10/09 01:24:11;;;;;;;45.38;42.97;;;;;;;12.11;100.00;101922.59;4919197;29;20060;-90
2023/10/09 01:27:32;;;;;;;39.85;37.65;;;;;;;12.14;100.00;101919.56;4949207;28;20047;-90
2023/10/09 01:34:23;;;;;;;43.33;40.72;;;;;;;12.13;100.00;101925.88;4856359;29;20114;-90
2023/10/09 01:49:54;;;;;;;50.22;47.63;;;;;;;12.19;100.00;101935.78;4765966;30;20165;-89
2023/10/09 01:53:17;;;;;;;50.67;48.25;;;;;;;12.11;100.00;101947.38;4794457;29;20055;-89
2023/10/09 01:56:46;;;;;;;55.67;53.08;;;;;;;12.28;100.00;101955.16;4932510;28;20075;-89
2023/10/09 02:03:18;;;;;;;60.88;58.17;;;;;;;12.25;100.00;101956.34;4950202;28;20057;-90
2023/10/09 02:06:24;;;;;;;58.42;55.65;;;;;;;11.84;100.00;101940.03;4947302;28;20082;-89
2023/10/09 02:12:13;;;;;;;54.15;51.35;;;;;;;11.66;100.00;101943.88;4958512;28;20070;-90
2023/10/09 02:22:12;;;;;;;51.45;49.25;;;;;;;12.71;100.00;101981.84;4911819;29;20052;-90
2023/10/09 02:32:13;;;;;;;44.35;42.15;;;;;;;11.87;100.00;101959.16;4924108;29;20468;-90
2023/10/09 02:34:41;;;;;;;45.22;42.88;;;;;;;12.14;100.00;101975.47;4906142;29;20044;-90
2023/10/09 02:37:23;;;;;;;38.70;36.70;;;;;;;11.77;100.00;101979.03;4912625;29;20048;-90
2023/10/09 02:40:08;;;;;;;45.40;43.10;;;;;;;11.67;100.00;101990.75;4912176;29;20140;-90
2023/10/09 02:42:49;;;;;;;39.42;37.22;;;;;;;11.70;100.00;101995.72;4911933;29;20852;-90
2023/10/09 02:45:16;;;;;;;44.80;42.30;;;;;;;11.64;100.00;101999.13;4907196;29;20052;-90
2023/10/09 02:47:48;;;;;;;52.05;49.45;;;;;;;11.55;100.00;101994.06;4910498;29;20111;-90
2023/10/09 02:50:21;;;;;;;47.23;45.03;;;;;;;11.51;100.00;101976.81;4901492;29;20056;-89
2023/10/09 02:52:53;;;;;;;56.35;53.85;;;;;;;11.51;100.00;101984.78;4914924;29;20052;-89
2023/10/09 02:55:26;;;;;;;52.80;50.33;;;;;;;11.81;100.00;101986.47;4913549;29;20048;-90
2023/10/09 02:58:31;;;;;;;54.30;51.70;;;;;;;11.37;100.00;101987.22;4897937;29;20072;-90
2023/10/09 03:00:59;;;;;;;61.97;58.67;;;;;;;11.31;100.00;101998.59;4909404;29;20109;-90
2023/10/09 03:03:45;;;;;;;47.95;45.85;;;;;;;11.26;100.00;101992.19;4914060;29;20048;-89
2023/10/09 03:06:13;;;;;;;49.05;46.45;;;;;;;11.30;100.00;102004.91;4910010;29;20056;-89
2023/10/09 03:08:51;;;;;;;50.03;47.58;;;;;;;11.29;100.00;101989.16;4907109;29;20121;-90
2023/10/09 03:11:18;;;;;;;55.08;52.28;;;;;;;11.23;100.00;102004.00;4915238;29;20611;-90
2023/10/09 03:13:47;;;;;;;64.35;61.42;;;;;;;11.07;100.00;102001.44;4913362;29;20051;-90
2023/10/09 03:16:18;;;;;;;50.67;48.10;;;;;;;11.07;100.00;102015.56;4913877;29;20070;-91
2023/10/09 03:18:47;;;;;;;48.95;46.72;;;;;;;11.20;100.00;102028.28;4909155;29;20060;-90
2023/10/09 03:21:17;;;;;;;44.67;42.58;;;;;;;11.27;100.00;102025.75;4922459;29;20059;-90
2023/10/09 03:23:49;;;;;;;39.05;37.25;;;;;;;11.17;100.00;102010.03;4912775;29;20063;-90
2023/10/09 03:26:17;;;;;;;36.37;34.67;;;;;;;11.05;100.00;102014.09;4913106;29;20226;-90
2023/10/09 03:28:44;;;;;;;40.03;36.53;;;;;;;11.06;100.00;102024.56;4913237;29;20068;-90
2023/10/09 03:31:12;;;;;;;57.47;53.05;;;;;;;11.17;100.00;102033.97;4910487;29;20059;-90
2023/10/09 03:33:39;;;;;;;57.85;52.95;;;;;;;11.08;100.00;102030.53;4919572;29;20232;-90
2023/10/09 03:36:09;;;;;;;49.03;44.53;;;;;;;10.98;100.00;102027.25;4910676;29;20521;-90
2023/10/09 03:38:36;;;;;;;58.13;53.67;;;;;;;10.92;100.00;102022.66;4912603;29;20055;-90
2023/10/09 03:41:06;;;;;;;35.72;32.85;;;;;;;10.90;100.00;102030.81;4909788;29;20078;-90
2023/10/09 03:46:55;;;;;;;45.85;42.75;;;;;;;11.13;100.00;102022.81;4891709;29;20048;-89
2023/10/09 03:53:04;;;;;;;44.75;41.67;;;;;;;11.18;100.00;102025.78;4910868;29;20052;-89
2023/10/09 03:55:46;;;;;;;43.63;40.53;;;;;;;10.90;100.00;102019.34;4908484;29;20112;-89
2023/10/09 03:58:33;;;;;;;53.97;50.17;;;;;;;11.02;100.00;102012.63;4902143;29;20563;-90
2023/10/09 04:01:18;;;;;;;53.35;49.33;;;;;;;10.98;100.00;102028.13;4900297;29;20600;-89
2023/10/09 04:03:45;;;;;;;62.35;57.97;;;;;;;11.12;100.00;102036.31;4900647;29;20056;-89
2023/10/09 04:08:50;;;;;;;53.25;49.38;;;;;;;11.96;100.00;102058.41;5056452;27;20414;-76
2023/10/09 04:11:22;;;;;;;41.60;38.42;;;;;;;11.34;100.00;102066.56;5084869;28;20135;-77
2023/10/09 04:13:49;;;;;;;38.90;35.90;;;;;;;11.30;100.00;102065.28;5069547;28;20059;-77
2023/10/09 04:16:51;;;;;;;33.40;31.98;;;;;;;11.14;100.00;102074.19;5086073;28;20063;-77
2023/10/09 04:19:21;;;;;;;25.67;24.33;;;;;;;11.34;100.00;102078.03;5083226;28;20051;-76
2023/10/09 04:21:52;;;;;;;27.27;25.85;;;;;;;11.22;100.00;102074.13;5085705;28;20047;-76
2023/10/09 04:24:26;;;;;;;22.35;21.05;;;;;;;11.26;100.00;102077.28;5087162;28;20107;-77
2023/10/09 04:26:58;;;;;;;21.63;20.23;;;;;;;11.29;100.00;102072.44;5085962;28;20047;-77
2023/10/09 04:29:38;;;;;;;23.40;22.10;;;;;;;11.70;100.00;102083.56;5086076;28;20044;-77
2023/10/09 04:32:15;;;;;;;24.42;23.02;;;;;;;11.49;100.00;102085.25;5086557;28;20044;-77
2023/10/09 04:34:48;;;;;;;21.15;19.75;;;;;;;11.32;100.00;102084.56;5085629;28;20547;-77
2023/10/09 04:37:24;;;;;;;;;;;;;;;11.32;100.00;102073.91;5083779;28;20080;-77
2023/10/09 04:40:01;;;;;;;20.75;19.35;;;;;;;11.41;100.00;102083.50;5086370;28;20354;-77
2023/10/09 04:42:46;;;;;;;24.30;22.70;;;;;;;11.16;100.00;102086.28;5083738;28;20045;-77
2023/10/09 04:45:25;;;;;;;21.70;20.20;;;;;;;11.51;100.00;102080.56;5083305;28;20048;-77
2023/10/09 04:48:08;;;;;;;22.05;20.55;;;;;;;11.39;100.00;102085.50;5085532;28;20048;-77
2023/10/09 04:51:20;;;;;;;20.33;18.92;;;;;;;11.28;100.00;102083.22;5081081;28;20060;-77
2023/10/09 04:53:53;;;;;;;19.98;18.67;;;;;;;11.05;100.00;102085.91;5080885;28;20565;-77
2023/10/09 04:56:24;;;;;;;20.05;18.75;;;;;;;11.08;100.00;102101.50;5083129;28;20131;-77
2023/10/09 04:59:03;;;;;;;20.67;19.38;;;;;;;11.23;100.00;102099.75;5085150;28;20118;-77
2023/10/09 05:01:43;;;;;;;22.65;21.15;;;;;;;11.41;100.00;102099.44;5077316;28;20119;-76
2023/10/09 05:04:28;;;;;;;24.65;23.05;;;;;;;11.15;100.00;102105.94;5075204;28;20064;-76
2023/10/09 05:06:58;;;;;;;24.85;23.35;;;;;;;11.13;100.00;102110.59;5082750;28;20068;-77
2023/10/09 05:09:55;;;;;;;24.30;22.80;;;;;;;11.51;100.00;102126.63;5084150;28;20052;-77
2023/10/09 05:12:26;;;;;;;23.50;22.00;;;;;;;11.51;100.00;102115.16;5084300;28;20080;-77
2023/10/09 05:15:04;;;;;;;22.90;21.30;;;;;;;11.89;100.00;102132.00;5085136;28;20137;-77
2023/10/09 05:17:34;;;;;;;25.17;23.20;;;;;;;11.66;100.00;102132.00;5084684;28;20045;-75
2023/10/09 05:22:53;;;;;;;21.40;20.00;;;;;;;11.76;100.00;102139.75;5064432;28;20049;-75
2023/10/09 05:25:51;;;;;;;24.00;22.40;;;;;;;11.73;100.00;102145.44;5071912;28;20505;-77
2023/10/09 05:30:55;;;;;;;22.75;21.05;;;;;;;11.44;100.00;102141.66;5067248;28;20115;-77
2023/10/09 05:33:33;;;;;;;22.42;20.83;;;;;;;11.66;100.00;102134.66;5070130;28;20143;-75
2023/10/09 05:36:31;;;;;;;21.58;19.85;;;;;;;11.44;100.00;102145.16;5069943;28;20472;-75
2023/10/09 05:39:17;;;;;;;22.50;20.70;;;;;;;11.23;100.00;102143.13;5069038;28;20063;-75
2023/10/09 05:41:52;;;;;;;22.20;20.70;;;;;;;11.47;100.00;102162.59;5071010;28;20071;-75
2023/10/09 05:47:35;;;;;;;21.15;19.65;;;;;;;12.00;100.00;102165.38;5067884;28;20127;-75
2023/10/09 05:53:04;;;;;;;25.02;23.40;;;;;;;12.24;100.00;102161.66;5064007;28;20121;-74
2023/10/09 06:03:53;;;;;;;22.10;20.50;;;;;;;11.88;100.00;102173.78;5069585;28;20125;-76
2023/10/09 06:06:33;;;;;;;22.35;20.75;;;;;;;13.28;100.00;102168.59;5065643;28;20059;-75
2023/10/09 06:09:28;;;;;;;24.38;22.65;;;;;;;12.56;100.00;102171.97;5068973;28;20048;-74
2023/10/09 06:14:57;;;;;;;24.23;22.73;;;;;;;12.41;100.00;102183.63;5064698;28;20435;-75
2023/10/09 06:17:27;;;;;;;25.95;24.35;;;;;;;13.28;100.00;102179.28;5067463;28;20105;-75
2023/10/09 06:20:11;;;;;;;26.30;24.60;;;;;;;12.67;88.08;102176.00;5068667;28;20044;-75
2023/10/09 06:25:27;;;;;;;25.30;23.60;;;;;;;13.13;77.77;102189.13;5061753;28;20637;-75
2023/10/09 06:27:59;;;;;;;26.42;24.73;;;;;;;13.17;79.63;102186.91;5065285;28;20044;-74
2023/10/09 06:30:26;;;;;;;;;;;;;;;13.11;78.74;102180.47;5069550;28;20144;-75
2023/10/09 06:33:19;;;;;;;23.92;22.33;;;;;;;13.63;88.54;102175.94;5069757;28;19927;-76
2023/10/09 06:35:53;;;;;;;24.80;23.20;;;;;;;13.17;77.19;102186.91;5035958;28;20061;-75
2023/10/09 06:38:23;;;;;;;25.65;23.95;;;;;;;13.40;83.75;102189.44;5055223;28;20049;-75
2023/10/09 06:43:53;;;;;;;25.52;24.02;;;;;;;14.23;98.64;102174.59;5061613;28;20051;-75
2023/10/09 06:46:43;;;;;;;27.20;25.63;;;;;;;13.54;72.17;102179.75;5067640;28;20072;-75
2023/10/09 06:49:29;;;;;;;30.23;28.63;;;;;;;13.92;74.36;102170.44;5063221;28;20406;-74
2023/10/09 06:52:13;;;;;;;30.42;28.73;;;;;;;13.83;71.21;102171.59;5066571;28;20052;-74
2023/10/09 06:54:49;;;;;;;28.08;26.38;;;;;;;13.59;67.62;102183.50;5057028;28;20057;-74
2023/10/09 06:57:43;;;;;;;29.48;27.67;;;;;;;14.05;97.12;102190.28;5064562;28;20194;-75
2023/10/09 07:03:10;;;;;;;26.80;25.10;;;;;;;13.57;62.78;102185.53;5035957;28;20052;-75
2023/10/09 07:06:00;;;;;;;23.70;22.10;;;;;;;13.94;65.30;102181.75;5062218;28;20087;-75
2023/10/09 07:08:31;;;;;;;24.88;23.23;;;;;;;13.94;61.29;102187.09;5066086;28;20114;-75
2023/10/09 07:11:21;;;;;;;25.58;23.83;;;;;;;13.96;59.28;102177.06;5063050;28;20041;-75
2023/10/09 07:13:54;;;;;;;24.25;22.55;;;;;;;14.24;61.61;102181.56;5060132;28;20052;-75
2023/10/09 07:16:38;;;;;;;25.27;23.48;;;;;;;14.17;59.47;102180.72;5063266;28;20040;-74
2023/10/09 07:19:24;;;;;;;24.13;22.52;;;;;;;15.22;63.72;102171.63;5054883;28;20520;-75
2023/10/09 07:21:54;;;;;;;23.92;22.42;;;;;;;15.18;80.66;102174.91;5065939;28;20056;-75
2023/10/09 07:24:34;;;;;;;24.55;22.95;;;;;;;14.40;55.32;102169.75;5067708;28;20049;-75
2023/10/09 07:27:06;;;;;;;26.13;24.35;;;;;;;15.01;52.11;102169.91;5061001;28;20049;-76
2023/10/09 07:29:47;;;;;;;25.63;23.92;;;;;;;15.04;55.73;102172.19;5062111;28;20056;-75
2023/10/09 07:32:20;;;;;;;24.83;23.23;;;;;;;15.00;49.68;102173.59;5059906;28;20040;-75
2023/10/09 07:34:59;;;;;;;26.25;24.42;;;;;;;15.13;49.37;102170.16;5058597;28;20443;-74
2023/10/09 07:37:30;;;;;;;25.27;23.38;;;;;;;15.37;48.51;102166.13;5064442;28;20056;-75
2023/10/09 07:39:58;;;;;;;25.17;23.38;;;;;;;15.58;47.31;102176.66;5064524;28;20051;-75
2023/10/09 07:42:33;;;;;;;25.23;23.42;;;;;;;15.49;45.17;102171.69;5068193;28;20094;-76
2023/10/09 07:45:11;;;;;;;25.33;23.52;;;;;;;15.10;46.25;102183.94;5063423;28;20048;-76
2023/10/09 07:48:00;;;;;;;26.13;24.13;;;;;;;15.40;51.92;102167.53;5066061;28;20467;-75
2023/10/09 07:50:37;;;;;;;25.30;23.60;;;;;;;16.32;60.95;102177.50;5062917;28;20052;-75
2023/10/09 07:53:17;;;;;;;23.00;21.40;;;;;;;16.59;55.54;102174.78;5068689;28;20111;-75
2023/10/09 07:55:54;;;;;;;24.98;22.27;;;;;;;16.02;45.19;102172.59;5069415;28;20045;-75
2023/10/09 07:58:24;;;;;;;24.25;22.45;;;;;;;16.58;48.04;102170.44;5069381;28;20041;-76
2023/10/09 08:01:15;;;;;;;25.83;24.00;;;;;;;17.20;50.65;102165.47;5066171;28;20432;-76
2023/10/09 08:03:45;;;;;;;25.00;23.20;;;;;;;17.03;45.26;102163.28;5062848;28;20495;-78
2023/10/09 08:09:38;;;;;;;24.95;23.25;;;;;;;16.35;43.37;102176.28;5062835;28;20129;-75
2023/10/09 08:15:20;;;;;;;25.60;23.90;;;;;;;16.09;45.81;102177.13;5068855;28;20046;-78
2023/10/09 08:17:50;;;;;;;25.45;23.83;;;;;;;16.84;44.56;102175.75;5067863;28;20048;-76
2023/10/09 08:20:24;;;;;;;25.25;23.65;;;;;;;16.66;45.78;102167.53;5067079;28;20453;-74
2023/10/09 08:22:52;;;;;;;26.17;24.38;;;;;;;17.30;44.44;102157.78;5067725;28;20154;-75
2023/10/09 08:25:31;;;;;;;25.30;23.50;;;;;;;17.47;42.07;102164.28;5067942;28;20044;-75
2023/10/09 08:28:39;;;;;;;24.10;22.40;;;;;;;17.39;42.57;102153.78;5068247;28;20110;-76
2023/10/09 08:30:51;;;;;;;26.02;24.23;;;;;;;17.42;44.25;102147.16;5068142;28;20052;-75
2023/10/09 08:36:14;;;;;;;;;;;;;;;17.02;46.34;102129.44;5018278;28;20102;-75
2023/10/09 08:38:43;;;;;;;29.77;27.88;;;;;;;16.72;45.00;102135.31;5055393;28;19943;-75
2023/10/09 08:41:19;;;;;;;27.05;25.15;;;;;;;17.27;44.28;102132.16;5068226;28;20478;-75
2023/10/09 08:43:51;;;;;;;26.48;24.77;;;;;;;17.40;43.40;102121.38;5068124;28;20052;-75
2023/10/09 08:46:21;;;;;;;26.08;24.48;;;;;;;17.95;42.03;102109.19;5063993;28;20184;-75
2023/10/09 08:48:49;;;;;;;26.52;24.83;;;;;;;17.24;47.11;102110.31;5065492;28;20048;-75
2023/10/09 08:51:25;;;;;;;26.75;25.05;;;;;;;17.39;42.20;102092.03;5063376;28;20040;-75
2023/10/09 08:53:52;;;;;;;27.20;25.40;;;;;;;17.81;41.67;102082.41;5063265;28;20534;-75
2023/10/09 08:56:23;;;;;;;23.65;21.85;;;;;;;17.65;42.23;102091.00;5065794;28;20500;-75
2023/10/09 08:58:52;;;;;;;25.13;23.33;;;;;;;18.00;40.46;102091.34;5066940;28;20557;-75
2023/10/09 09:01:21;;;;;;;27.30;25.40;;;;;;;18.02;40.82;102091.09;5070592;28;20092;-75
2023/10/09 09:03:50;;;;;;;25.45;23.70;;;;;;;18.13;41.01;102084.19;5062359;28;20048;-76
2023/10/09 09:06:19;;;;;;;27.10;25.20;;;;;;;18.31;39.61;102078.81;5060662;28;20598;-75
2023/10/09 09:08:46;;;;;;;28.40;26.50;;;;;;;19.02;40.28;102090.75;5068366;28;20048;-75
2023/10/09 09:11:16;;;;;;;26.15;24.30;;;;;;;18.67;44.19;102091.41;5064273;28;20048;-77
2023/10/09 09:13:52;;;;;;;27.30;25.30;;;;;;;19.10;39.99;102092.31;5067261;28;20048;-76
2023/10/09 09:16:29;;;;;;;27.73;25.83;;;;;;;18.89;38.07;102099.84;5066340;28;20068;-81
2023/10/09 09:19:04;;;;;;;27.35;25.55;;;;;;;19.10;38.21;102106.59;5058685;28;20059;-81
2023/10/09 09:21:38;;;;;;;27.95;25.95;;;;;;;19.29;39.70;102096.56;5068244;28;20052;-78
2023/10/09 09:24:26;;;;;;;28.33;26.42;;;;;;;19.16;38.53;102091.41;5067703;28;20488;-78
2023/10/09 09:26:59;;;;;;;26.50;24.77;;;;;;;19.16;37.90;102086.81;5070921;28;20075;-78
2023/10/09 09:29:41;;;;;;;27.65;25.75;;;;;;;18.99;38.02;102075.88;5071114;28;20795;-78
2023/10/09 09:32:17;;;;;;;29.13;27.02;;;;;;;20.05;37.22;102081.41;5071340;28;20143;-76
2023/10/09 09:35:15;;;;;;;26.77;24.88;;;;;;;20.18;36.07;102072.25;5068723;28;20099;-75
2023/10/09 09:37:54;;;;;;;26.85;24.95;;;;;;;20.19;36.77;102075.78;5064376;28;20080;-77
2023/10/09 09:40:30;;;;;;;26.23;24.33;;;;;;;19.18;36.96;102060.50;5071128;28;20136;-78
2023/10/09 09:43:04;;;;;;;27.77;25.75;;;;;;;19.42;38.10;102049.75;5070985;28;20082;-78
2023/10/09 09:45:33;;;;;;;29.15;26.95;;;;;;;19.88;38.54;102057.06;5071255;28;20492;-78
2023/10/09 09:48:05;;;;;;;29.45;27.25;;;;;;;19.85;37.00;102040.53;5068075;28;20056;-78
2023/10/09 09:50:32;;;;;;;27.38;25.17;;;;;;;20.79;36.27;102034.91;5069556;28;20055;-77
2023/10/09 09:53:00;;;;;;;27.67;25.38;;;;;;;21.80;35.76;102021.41;5070974;28;20742;-77
2023/10/09 09:55:35;;;;;;;25.92;23.98;;;;;;;21.28;35.14;102019.81;5056830;28;20090;-77
2023/10/09 09:58:06;;;;;;;26.95;24.75;;;;;;;22.42;34.71;102023.00;5066536;28;20056;-76
2023/10/09 10:00:43;;;;;;;25.75;23.75;;;;;;;21.52;34.61;102018.84;5072885;28;20051;-78
2023/10/09 10:03:13;;;;;;;25.83;23.73;;;;;;;22.44;34.24;102007.34;5068375;28;20698;-76
2023/10/09 10:05:46;;;;;;;26.42;24.42;;;;;;;23.09;33.43;102003.66;5063482;28;20063;-73
2023/10/09 10:08:31;;;;;;;28.00;25.92;;;;;;;22.86;33.59;101987.72;5070659;28;20591;-75
2023/10/09 10:11:04;;;;;;;25.92;23.92;;;;;;;23.86;32.98;101990.59;5070565;28;20443;-78
2023/10/09 10:13:58;;;;;;;26.58;24.38;;;;;;;24.13;31.48;101976.88;5069575;28;20057;-76
2023/10/09 10:16:34;;;;;;;25.80;23.80;;;;;;;23.14;33.68;101970.34;5055001;28;20051;-78
2023/10/09 10:19:21;;;;;;;27.98;25.88;;;;;;;24.13;32.23;101957.88;5067376;28;20431;-78
2023/10/09 10:21:53;;;;;;;28.00;25.70;;;;;;;23.46;32.48;101964.88;5066536;28;20483;-78
2023/10/09 10:24:52;;;;;;;28.17;25.83;;;;;;;23.79;32.88;101953.97;5067074;28;20094;-78
2023/10/09 10:27:27;;;;;;;26.20;24.00;;;;;;;23.42;33.22;101952.09;5067641;28;20044;-78
2023/10/09 10:30:43;;;;;;;27.25;24.95;;;;;;;23.66;33.34;101937.06;5069296;28;20041;-78
2023/10/09 10:33:12;;;;;;;27.38;25.38;;;;;;;24.65;33.20;101937.88;5054382;28;20131;-78
2023/10/09 10:35:52;;;;;;;27.23;25.13;;;;;;;24.07;32.58;101931.00;5070000;28;20129;-78
2023/10/09 10:38:36;;;;;;;26.90;24.77;;;;;;;23.63;32.35;101926.75;5069856;28;20052;-77
2023/10/09 10:41:16;;;;;;;26.65;24.95;;;;;;;23.27;34.87;101923.84;5070034;28;20086;-78
2023/10/09 10:43:54;;;;;;;26.25;24.45;;;;;;;24.07;32.26;101914.72;5069034;28;20492;-78
2023/10/09 10:46:37;;;;;;;27.38;25.23;;;;;;;21.44;35.31;101909.28;5060122;28;20055;-78
2023/10/09 10:49:16;;;;;;;32.15;30.15;;;;;;;23.63;33.32;101902.34;5058918;28;20051;-78
2023/10/09 10:51:49;;;;;;;27.63;25.77;;;;;;;25.52;31.46;101890.75;5067997;28;20052;-79
2023/10/09 10:57:52;;;;;;;27.40;25.60;;;;;;;24.71;32.23;101872.69;5069570;28;20110;-78
2023/10/09 11:03:13;;;;;;;25.20;23.50;;;;;;;23.25;32.06;101865.56;5064054;28;20052;-76
2023/10/09 11:05:42;;;;;;;25.13;23.42;;;;;;;23.67;32.16;101851.91;5064938;28;20557;-76
2023/10/09 11:08:11;;;;;;;25.58;23.58;;;;;;;23.71;32.89;101852.22;5068410;28;20048;-76
2023/10/09 11:10:49;;;;;;;26.10;24.10;;;;;;;23.79;32.20;101842.75;5068929;28;20052;-75
2023/10/09 11:13:33;;;;;;;27.92;25.73;;;;;;;21.78;34.12;101828.84;5054807;28;20056;-75
2023/10/09 11:18:45;;;;;;;32.55;29.92;;;;;;;24.05;32.34;101795.56;5067288;28;20424;-76
2023/10/09 11:21:32;;;;;;;26.15;24.35;;;;;;;24.84;31.65;101802.34;5066014;28;20048;-75
2023/10/09 11:26:53;;;;;;;30.10;26.73;;;;;;;24.46;31.29;101790.16;5067426;28;20470;-75
2023/10/09 11:29:23;;;;;;;24.52;22.73;;;;;;;24.48;30.78;101785.28;5068260;28;20076;-76
2023/10/09 11:32:05;;;;;;;22.67;21.08;;;;;;;22.73;34.42;101785.06;5068076;28;20078;-75
2023/10/09 11:34:31;;;;;;;23.88;22.08;;;;;;;24.19;30.92;101768.72;5067751;28;20527;-75
2023/10/09 11:37:02;;;;;;;24.00;22.30;;;;;;;23.97;31.71;101769.81;5068436;28;20099;-75
2023/10/09 11:39:37;;;;;;;23.40;21.70;;;;;;;23.99;32.42;101759.50;5066526;28;20098;-76
2023/10/09 11:42:08;;;;;;;25.52;23.73;;;;;;;20.83;38.58;101757.97;5064401;28;20092;-76
2023/10/09 11:44:39;;;;;;;27.10;25.20;;;;;;;22.13;36.62;101747.25;5067750;28;20067;-76
2023/10/09 11:47:22;;;;;;;33.00;27.27;;;;;;;24.05;33.03;101738.59;5068723;28;20040;-76
2023/10/09 11:49:56;;;;;;;28.92;26.73;;;;;;;22.96;38.39;101727.75;5068053;28;20530;-76
2023/10/09 11:52:36;;;;;;;28.40;26.40;;;;;;;24.04;33.88;101723.41;5068765;28;20040;-76
2023/10/09 11:55:02;;;;;;;28.70;26.65;;;;;;;25.66;30.75;101717.69;5061323;28;20704;-77
2023/10/09 11:57:33;;;;;;;25.42;23.52;;;;;;;25.53;31.14;101712.88;5066083;28;20086;-79
2023/10/09 12:00:06;;;;;;;25.40;23.30;;;;;;;21.88;35.39;101717.28;5062380;28;20056;-78
2023/10/09 12:02:38;;;;;;;26.58;24.58;;;;;;;20.61;37.50;101709.34;5053507;28;20048;-78
2023/10/09 12:05:09;;;;;;;30.45;28.25;;;;;;;21.76;36.34;101708.53;5068654;28;20483;-78
2023/10/09 12:07:54;;;;;;;26.73;24.83;;;;;;;22.18;36.00;101705.94;5067208;28;20055;-78
2023/10/09 12:10:24;;;;;;;25.60;23.70;;;;;;;24.51;32.28;101691.59;5059101;28;20045;-78
2023/10/09 12:12:52;;;;;;;25.40;23.50;;;;;;;24.05;34.56;101688.94;5062330;28;20136;-78
2023/10/09 12:15:19;;;;;;;26.00;24.10;;;;;;;23.52;33.63;101681.84;5066301;28;20044;-78
2023/10/09 12:17:47;;;;;;;24.92;23.17;;;;;;;25.34;31.43;101680.91;5067639;28;20055;-79
2023/10/09 12:20:34;;;;;;;24.27;22.58;;;;;;;24.39;32.83;101684.53;5056428;28;20080;-78
2023/10/09 12:23:04;;;;;;;25.13;23.45;;;;;;;25.19;30.39;101670.13;5066203;28;20056;-78
2023/10/09 12:25:32;;;;;;;24.05;22.45;;;;;;;24.61;30.40;101662.50;5066371;28;20056;-78
2023/10/09 12:28:01;;;;;;;23.30;21.70;;;;;;;24.05;31.20;101668.03;5067361;28;20049;-79
2023/10/09 12:30:28;;;;;;;26.15;24.35;;;;;;;24.92;30.50;101654.22;5068851;28;20106;-78
2023/10/09 12:32:57;;;;;;;27.60;25.50;;;;;;;24.55;31.35;101649.22;5067966;28;20061;-79
2023/10/09 12:35:24;;;;;;;26.85;24.95;;;;;;;25.31;29.66;101645.31;5064485;28;20052;-78
2023/10/09 12:37:54;;;;;;;26.75;24.95;;;;;;;25.23;30.69;101644.00;5071033;28;20049;-78
2023/10/09 12:40:29;;;;;;;26.42;24.52;;;;;;;24.53;31.20;101640.53;5071870;28;20523;-78
2023/10/09 12:42:58;;;;;;;26.10;24.30;;;;;;;21.90;35.11;101652.91;5072101;28;20238;-78
2023/10/09 12:45:27;;;;;;;25.67;23.98;;;;;;;21.79;34.39;101643.94;5069798;28;20051;-78
2023/10/09 12:47:58;;;;;;;27.55;25.55;;;;;;;24.01;32.07;101637.13;5067961;28;20048;-78
2023/10/09 12:50:28;;;;;;;26.15;24.35;;;;;;;23.48;32.02;101636.56;5068663;28;20551;-76
2023/10/09 12:53:01;;;;;;;26.90;25.00;;;;;;;23.40;31.46;101631.69;5070565;28;20114;-76
2023/10/09 12:55:32;;;;;;;25.08;23.38;;;;;;;25.36;31.34;101626.25;5067826;28;20486;-76
2023/10/09 12:58:06;;;;;;;23.23;21.45;;;;;;;23.23;31.87;101610.25;5064699;28;20048;-75
2023/10/09 13:00:36;;;;;;;23.75;21.95;;;;;;;22.78;39.32;101615.25;5072272;28;20044;-78
2023/10/09 13:03:16;;;;;;;24.35;22.65;;;;;;;21.68;43.85;101616.00;5065534;28;20073;-78
2023/10/09 13:05:51;;;;;;;24.58;22.77;;;;;;;21.81;35.83;101617.44;5070649;28;20084;-79
2023/10/09 13:08:31;;;;;;;24.02;22.23;;;;;;;21.84;35.25;101608.00;5067938;28;20129;-78
2023/10/09 13:11:10;;;;;;;23.73;21.92;;;;;;;22.00;35.09;101608.91;5071333;28;20080;-79
2023/10/09 13:13:41;;;;;;;22.00;20.40;;;;;;;22.49;40.35;101606.78;5058687;28;20044;-78
2023/10/09 13:16:13;;;;;;;21.60;20.00;;;;;;;21.55;35.88;101608.31;5065356;28;20125;-78
2023/10/09 13:18:49;;;;;;;21.65;20.13;;;;;;;22.55;36.56;101608.44;5069817;28;20049;-78
2023/10/09 13:21:23;;;;;;;20.52;19.02;;;;;;;20.50;36.78;101611.22;5068688;28;20577;-78
2023/10/09 13:23:54;;;;;;;23.50;21.92;;;;;;;21.19;37.10;101612.56;5061452;28;20045;-78
2023/10/09 13:26:27;;;;;;;21.48;19.88;;;;;;;22.11;37.97;101597.06;5070293;28;20045;-78
2023/10/09 13:29:01;;;;;;;21.63;20.13;;;;;;;21.80;37.64;101596.88;5069756;28;20048;-79
2023/10/09 13:31:31;;;;;;;25.17;23.38;;;;;;;21.71;37.37;101593.03;5067094;28;20052;-78
2023/10/09 13:33:59;;;;;;;24.50;22.80;;;;;;;21.29;37.27;101588.34;5070792;28;20876;-78
2023/10/09 13:36:31;;;;;;;22.40;20.80;;;;;;;20.71;41.86;101590.72;5070542;28;20052;-75
2023/10/09 13:39:02;;;;;;;23.65;21.95;;;;;;;20.74;39.83;101587.50;5066391;28;20060;-73
2023/10/09 13:41:30;;;;;;;24.90;23.10;;;;;;;21.58;37.19;101580.78;5063536;28;20053;-75
2023/10/09 13:43:57;;;;;;;26.60;24.80;;;;;;;21.62;36.84;101573.78;5068567;28;20037;-76
2023/10/09 13:46:24;;;;;;;25.00;23.30;;;;;;;20.49;38.77;101576.41;5069921;28;20110;-75
2023/10/09 13:48:52;;;;;;;24.80;22.95;;;;;;;20.69;37.89;101570.44;5068854;28;20166;-76
2023/10/09 13:51:23;;;;;;;24.63;22.92;;;;;;;19.22;41.21;101571.53;5069582;28;20056;-75
2023/10/09 13:53:50;;;;;;;24.80;22.90;;;;;;;20.51;46.76;101566.97;5060658;28;20127;-76
2023/10/09 13:56:20;;;;;;;23.23;21.52;;;;;;;20.75;48.80;101567.53;5066038;28;20056;-75
2023/10/09 13:58:50;;;;;;;23.65;21.95;;;;;;;20.35;40.38;101552.47;5069440;28;20051;-75
2023/10/09 14:01:26;;;;;;;22.67;21.08;;;;;;;20.51;40.18;101548.06;5069051;28;20053;-75
2023/10/09 14:03:56;;;;;;;23.17;21.48;;;;;;;20.05;41.64;101542.09;5062223;28;20056;-78